Cabramurra Smhea, Australia

11:38 AM AEDT on December 11, 2016 (GMT +1100)
Cooma-Snowy Mountains | | Change Station

Elev 3087 ft 36.30 °S, 148.97 °E | Updated 38 minutes ago

Clear
Clear
63 °F
Feels Like 63 °F
N
9
Wind Variable Wind from NE

Today
High -- | Low -- °F
--% Chance of Precip.
Yesterday
High -- | Low -- °F
Precip. -- in
Pressure 30.21 in
Visibility 6.2 miles
Clouds
Dew Point 46 °F
Humidity 55%
Rainfall 0.00 in
Snow Depth Not available.
5:43 AM 8:16 PM
Waxing Gibbous, 87% visible
METAR YCOM 110000Z AUTO 04008KT 9999 // NCD 17/08 Q1023
Pressure 30.21 in
Visibility 6.2 miles
Clouds
Dew Point 46 °F
Humidity 55%
Rainfall 0.00 in
Snow Depth Not available.
5:43 AM 8:16 PM
Waxing Gibbous, 87% visible
METAR YCOM 110000Z AUTO 04008KT 9999 // NCD 17/08 Q1023

10-Day Weather Forecast

×

Almanac

Astronomy

Dec. 11, 2016 Rise Set
Actual Time
Civil Twilight
Nautical Twilight
Astronomical Twilight
Moon
Length of Visible Light
Length of Day
Tomorrow will be .
, % of the Moon is Illuminated

Today's Extremes

Country Highs Country Lows

Community

WunderPhotos

Upload Photos

1,956,685 photos uploaded!

WunderBlog® & News

Nearby

Air Quality

  Air Quality AQ Index Pollutant
Not available.

Snow Depth

Station Depth Elevation

Earthquake Activity

City Distance Mag. Time & Date
Minimum magnitude displayed is 2.5.

Coastal Water Temperatures

Place Temperature

Stations

Nearby Weather Stations

Station Location Temp. Windchill Dew Point Humidity Wind Precip. Elev Updated Type